sensor_id;sensor_type;location;lat;lon;timestamp;P1;durP1;ratioP1;P2;durP2;ratioP2
25653;SDS011;13511;48.622;9.230;2023-04-15T00:00:58;13.43;;;8.73;;
25653;SDS011;13511;48.622;9.230;2023-04-15T00:03:25;9.68;;;8.73;;
25653;SDS011;13511;48.622;9.230;2023-04-15T00:05:52;10.38;;;9.27;;
25653;SDS011;13511;48.622;9.230;2023-04-15T00:08:18;9.90;;;9.20;;
25653;SDS011;13511;48.622;9.230;2023-04-15T00:10:44;11.30;;;9.15;;
25653;SDS011;13511;48.622;9.230;2023-04-15T00:13:10;10.40;;;9.18;;
25653;SDS011;13511;48.622;9.230;2023-04-15T00:15:36;10.02;;;9.20;;
25653;SDS011;13511;48.622;9.230;2023-04-15T00:18:03;10.20;;;9.35;;
25653;SDS011;13511;48.622;9.230;2023-04-15T00:20:29;10.13;;;9.30;;
25653;SDS011;13511;48.622;9.230;2023-04-15T00:22:55;10.90;;;9.93;;
25653;SDS011;13511;48.622;9.230;2023-04-15T00:25:22;11.60;;;9.40;;
25653;SDS011;13511;48.622;9.230;2023-04-15T00:27:48;13.25;;;11.50;;
25653;SDS011;13511;48.622;9.230;2023-04-15T00:30:14;14.25;;;11.10;;
25653;SDS011;13511;48.622;9.230;2023-04-15T00:32:40;16.38;;;10.57;;
25653;SDS011;13511;48.622;9.230;2023-04-15T00:35:07;15.23;;;11.43;;
25653;SDS011;13511;48.622;9.230;2023-04-15T00:37:33;15.23;;;10.93;;
25653;SDS011;13511;48.622;9.230;2023-04-15T00:39:59;13.07;;;10.65;;
25653;SDS011;13511;48.622;9.230;2023-04-15T00:42:25;12.35;;;10.48;;
25653;SDS011;13511;48.622;9.230;2023-04-15T00:44:52;12.35;;;11.02;;
25653;SDS011;13511;48.622;9.230;2023-04-15T00:47:18;12.60;;;10.85;;
25653;SDS011;13511;48.622;9.230;2023-04-15T00:49:45;14.93;;;10.93;;
25653;SDS011;13511;48.622;9.230;2023-04-15T00:52:11;11.93;;;10.75;;
25653;SDS011;13511;48.622;9.230;2023-04-15T00:54:38;15.52;;;12.00;;
25653;SDS011;13511;48.622;9.230;2023-04-15T00:57:05;17.10;;;11.90;;
25653;SDS011;13511;48.622;9.230;2023-04-15T00:59:32;19.73;;;13.02;;
25653;SDS011;13511;48.622;9.230;2023-04-15T01:01:59;20.50;;;12.15;;
25653;SDS011;13511;48.622;9.230;2023-04-15T01:04:25;21.77;;;13.32;;
25653;SDS011;13511;48.622;9.230;2023-04-15T01:06:51;18.02;;;13.60;;
25653;SDS011;13511;48.622;9.230;2023-04-15T01:09:17;19.38;;;12.57;;
25653;SDS011;13511;48.622;9.230;2023-04-15T01:11:43;13.52;;;11.85;;
25653;SDS011;13511;48.622;9.230;2023-04-15T01:14:09;14.85;;;11.23;;
25653;SDS011;13511;48.622;9.230;2023-04-15T01:16:36;14.93;;;12.27;;
25653;SDS011;13511;48.622;9.230;2023-04-15T01:19:05;21.35;;;11.65;;
25653;SDS011;13511;48.622;9.230;2023-04-15T01:21:33;14.25;;;11.50;;
25653;SDS011;13511;48.622;9.230;2023-04-15T01:24:00;12.63;;;11.32;;
25653;SDS011;13511;48.622;9.230;2023-04-15T01:26:28;15.55;;;11.80;;
25653;SDS011;13511;48.622;9.230;2023-04-15T01:28:54;15.48;;;12.02;;
25653;SDS011;13511;48.622;9.230;2023-04-15T01:31:21;13.32;;;11.75;;
25653;SDS011;13511;48.622;9.230;2023-04-15T01:33:47;17.50;;;11.15;;
25653;SDS011;13511;48.622;9.230;2023-04-15T01:36:13;15.70;;;10.68;;
25653;SDS011;13511;48.622;9.230;2023-04-15T01:38:39;17.23;;;11.70;;
25653;SDS011;13511;48.622;9.230;2023-04-15T01:41:05;15.23;;;11.55;;
25653;SDS011;13511;48.622;9.230;2023-04-15T01:43:32;12.43;;;11.32;;
25653;SDS011;13511;48.622;9.230;2023-04-15T01:45:58;14.38;;;11.43;;
25653;SDS011;13511;48.622;9.230;2023-04-15T01:48:24;15.63;;;12.02;;
25653;SDS011;13511;48.622;9.230;2023-04-15T01:50:51;14.75;;;12.02;;
25653;SDS011;13511;48.622;9.230;2023-04-15T01:53:17;15.10;;;11.98;;
25653;SDS011;13511;48.622;9.230;2023-04-15T01:55:43;14.55;;;11.93;;
25653;SDS011;13511;48.622;9.230;2023-04-15T01:58:09;16.73;;;12.38;;
25653;SDS011;13511;48.622;9.230;2023-04-15T02:00:36;13.57;;;12.13;;
25653;SDS011;13511;48.622;9.230;2023-04-15T02:03:02;13.63;;;11.93;;
25653;SDS011;13511;48.622;9.230;2023-04-15T02:05:28;13.75;;;12.35;;
25653;SDS011;13511;48.622;9.230;2023-04-15T02:07:54;18.40;;;12.55;;
25653;SDS011;13511;48.622;9.230;2023-04-15T02:10:20;14.65;;;13.13;;
25653;SDS011;13511;48.622;9.230;2023-04-15T02:12:46;17.58;;;12.38;;
25653;SDS011;13511;48.622;9.230;2023-04-15T02:15:12;15.73;;;12.77;;
25653;SDS011;13511;48.622;9.230;2023-04-15T02:17:38;16.55;;;13.02;;
25653;SDS011;13511;48.622;9.230;2023-04-15T02:20:04;13.98;;;11.93;;
25653;SDS011;13511;48.622;9.230;2023-04-15T02:22:31;13.23;;;11.85;;
25653;SDS011;13511;48.622;9.230;2023-04-15T02:24:57;15.65;;;11.75;;
25653;SDS011;13511;48.622;9.230;2023-04-15T02:27:23;15.13;;;11.20;;
25653;SDS011;13511;48.622;9.230;2023-04-15T02:29:49;14.57;;;11.60;;
25653;SDS011;13511;48.622;9.230;2023-04-15T02:32:15;16.00;;;11.20;;
25653;SDS011;13511;48.622;9.230;2023-04-15T02:34:42;14.65;;;11.73;;
25653;SDS011;13511;48.622;9.230;2023-04-15T02:37:09;15.13;;;11.73;;
25653;SDS011;13511;48.622;9.230;2023-04-15T02:39:36;12.80;;;11.48;;
25653;SDS011;13511;48.622;9.230;2023-04-15T02:42:02;15.23;;;11.63;;
25653;SDS011;13511;48.622;9.230;2023-04-15T02:44:29;15.57;;;11.70;;
25653;SDS011;13511;48.622;9.230;2023-04-15T02:46:56;16.17;;;12.02;;
25653;SDS011;13511;48.622;9.230;2023-04-15T02:49:22;16.95;;;11.85;;
25653;SDS011;13511;48.622;9.230;2023-04-15T02:51:48;18.60;;;11.07;;
25653;SDS011;13511;48.622;9.230;2023-04-15T02:54:18;11.63;;;10.73;;
25653;SDS011;13511;48.622;9.230;2023-04-15T02:56:44;14.95;;;11.88;;
25653;SDS011;13511;48.622;9.230;2023-04-15T02:59:11;17.17;;;11.90;;
25653;SDS011;13511;48.622;9.230;2023-04-15T03:01:37;14.13;;;12.00;;
25653;SDS011;13511;48.622;9.230;2023-04-15T03:04:03;11.95;;;10.85;;
25653;SDS011;13511;48.622;9.230;2023-04-15T03:06:31;16.17;;;11.75;;
25653;SDS011;13511;48.622;9.230;2023-04-15T03:08:57;12.70;;;11.38;;
25653;SDS011;13511;48.622;9.230;2023-04-15T03:11:24;14.60;;;11.50;;
25653;SDS011;13511;48.622;9.230;2023-04-15T03:13:51;13.50;;;12.10;;
25653;SDS011;13511;48.622;9.230;2023-04-15T03:16:17;12.73;;;11.52;;
25653;SDS011;13511;48.622;9.230;2023-04-15T03:18:43;13.90;;;12.55;;
25653;SDS011;13511;48.622;9.230;2023-04-15T03:21:09;17.35;;;11.50;;
25653;SDS011;13511;48.622;9.230;2023-04-15T03:23:35;12.57;;;11.43;;
25653;SDS011;13511;48.622;9.230;2023-04-15T03:26:01;11.55;;;10.68;;
25653;SDS011;13511;48.622;9.230;2023-04-15T03:28:28;12.38;;;11.18;;
25653;SDS011;13511;48.622;9.230;2023-04-15T03:30:54;11.70;;;10.63;;
25653;SDS011;13511;48.622;9.230;2023-04-15T03:33:20;14.68;;;10.90;;
25653;SDS011;13511;48.622;9.230;2023-04-15T03:35:46;11.77;;;10.77;;
25653;SDS011;13511;48.622;9.230;2023-04-15T03:38:12;15.88;;;10.63;;
25653;SDS011;13511;48.622;9.230;2023-04-15T03:43:05;11.32;;;10.50;;
25653;SDS011;13511;48.622;9.230;2023-04-15T03:45:31;16.10;;;11.48;;
25653;SDS011;13511;48.622;9.230;2023-04-15T03:47:57;12.63;;;11.25;;
25653;SDS011;13511;48.622;9.230;2023-04-15T03:50:23;13.27;;;10.63;;
25653;SDS011;13511;48.622;9.230;2023-04-15T03:52:49;14.45;;;11.52;;
25653;SDS011;13511;48.622;9.230;2023-04-15T03:55:15;13.38;;;11.13;;
25653;SDS011;13511;48.622;9.230;2023-04-15T03:57:41;13.30;;;11.90;;
25653;SDS011;13511;48.622;9.230;2023-04-15T04:00:07;12.55;;;11.40;;
25653;SDS011;13511;48.622;9.230;2023-04-15T04:02:34;13.98;;;10.98;;
25653;SDS011;13511;48.622;9.230;2023-04-15T04:05:00;12.70;;;10.75;;
25653;SDS011;13511;48.622;9.230;2023-04-15T04:07:26;11.73;;;10.60;;
25653;SDS011;13511;48.622;9.230;2023-04-15T04:09:52;11.07;;;10.10;;
25653;SDS011;13511;48.622;9.230;2023-04-15T04:12:18;10.73;;;9.93;;
25653;SDS011;13511;48.622;9.230;2023-04-15T04:14:44;11.30;;;10.40;;
25653;SDS011;13511;48.622;9.230;2023-04-15T04:17:10;12.40;;;11.10;;
25653;SDS011;13511;48.622;9.230;2023-04-15T04:19:36;12.10;;;10.15;;
25653;SDS011;13511;48.622;9.230;2023-04-15T04:22:02;12.23;;;10.40;;
25653;SDS011;13511;48.622;9.230;2023-04-15T04:24:28;13.00;;;10.40;;
25653;SDS011;13511;48.622;9.230;2023-04-15T04:26:54;10.70;;;9.70;;
25653;SDS011;13511;48.622;9.230;2023-04-15T04:29:21;12.90;;;10.48;;
25653;SDS011;13511;48.622;9.230;2023-04-15T04:31:47;11.18;;;9.57;;
25653;SDS011;13511;48.622;9.230;2023-04-15T04:34:13;11.75;;;10.68;;
25653;SDS011;13511;48.622;9.230;2023-04-15T04:36:39;11.75;;;10.75;;
25653;SDS011;13511;48.622;9.230;2023-04-15T04:39:06;12.25;;;11.05;;
25653;SDS011;13511;48.622;9.230;2023-04-15T04:41:32;12.48;;;11.38;;
25653;SDS011;13511;48.622;9.230;2023-04-15T04:43:58;12.95;;;11.52;;
25653;SDS011;13511;48.622;9.230;2023-04-15T04:46:24;11.93;;;10.90;;
25653;SDS011;13511;48.622;9.230;2023-04-15T04:48:50;11.70;;;10.60;;
25653;SDS011;13511;48.622;9.230;2023-04-15T04:51:16;11.50;;;10.30;;
25653;SDS011;13511;48.622;9.230;2023-04-15T04:53:42;16.55;;;11.18;;
25653;SDS011;13511;48.622;9.230;2023-04-15T04:56:08;11.60;;;10.30;;
25653;SDS011;13511;48.622;9.230;2023-04-15T04:58:35;16.85;;;11.68;;
25653;SDS011;13511;48.622;9.230;2023-04-15T05:01:00;11.15;;;10.25;;
25653;SDS011;13511;48.622;9.230;2023-04-15T05:03:27;13.25;;;10.00;;
25653;SDS011;13511;48.622;9.230;2023-04-15T05:05:53;10.90;;;9.98;;
25653;SDS011;13511;48.622;9.230;2023-04-15T05:08:19;10.35;;;9.55;;
25653;SDS011;13511;48.622;9.230;2023-04-15T05:10:45;11.02;;;10.00;;
25653;SDS011;13511;48.622;9.230;2023-04-15T05:13:11;11.63;;;10.55;;
25653;SDS011;13511;48.622;9.230;2023-04-15T05:15:37;13.70;;;10.73;;
25653;SDS011;13511;48.622;9.230;2023-04-15T05:18:05;11.43;;;10.48;;
25653;SDS011;13511;48.622;9.230;2023-04-15T05:20:31;11.30;;;10.38;;
25653;SDS011;13511;48.622;9.230;2023-04-15T05:22:57;11.48;;;10.38;;
25653;SDS011;13511;48.622;9.230;2023-04-15T05:25:23;11.13;;;10.00;;
25653;SDS011;13511;48.622;9.230;2023-04-15T05:27:50;11.40;;;10.25;;
25653;SDS011;13511;48.622;9.230;2023-04-15T05:30:16;11.40;;;10.40;;
25653;SDS011;13511;48.622;9.230;2023-04-15T05:32:42;11.20;;;10.35;;
25653;SDS011;13511;48.622;9.230;2023-04-15T05:35:08;12.68;;;10.45;;
25653;SDS011;13511;48.622;9.230;2023-04-15T05:37:34;12.85;;;10.63;;
25653;SDS011;13511;48.622;9.230;2023-04-15T05:40:00;12.15;;;11.15;;
25653;SDS011;13511;48.622;9.230;2023-04-15T05:42:28;11.80;;;10.90;;
25653;SDS011;13511;48.622;9.230;2023-04-15T05:44:54;12.45;;;10.60;;
25653;SDS011;13511;48.622;9.230;2023-04-15T05:47:20;11.43;;;10.32;;
25653;SDS011;13511;48.622;9.230;2023-04-15T05:49:46;11.00;;;9.95;;
25653;SDS011;13511;48.622;9.230;2023-04-15T05:52:12;11.05;;;10.25;;
25653;SDS011;13511;48.622;9.230;2023-04-15T05:54:38;11.50;;;10.52;;
25653;SDS011;13511;48.622;9.230;2023-04-15T05:57:04;11.27;;;10.07;;
25653;SDS011;13511;48.622;9.230;2023-04-15T05:59:30;11.65;;;10.48;;
25653;SDS011;13511;48.622;9.230;2023-04-15T06:01:56;12.90;;;11.35;;
25653;SDS011;13511;48.622;9.230;2023-04-15T06:04:22;12.38;;;11.25;;
25653;SDS011;13511;48.622;9.230;2023-04-15T06:06:48;12.05;;;10.82;;
25653;SDS011;13511;48.622;9.230;2023-04-15T06:09:14;16.83;;;10.93;;
25653;SDS011;13511;48.622;9.230;2023-04-15T06:11:40;12.68;;;10.85;;
25653;SDS011;13511;48.622;9.230;2023-04-15T06:14:07;11.88;;;10.63;;
25653;SDS011;13511;48.622;9.230;2023-04-15T06:16:33;15.00;;;10.85;;
25653;SDS011;13511;48.622;9.230;2023-04-15T06:19:00;11.02;;;10.13;;
25653;SDS011;13511;48.622;9.230;2023-04-15T06:21:26;10.50;;;9.68;;
25653;SDS011;13511;48.622;9.230;2023-04-15T06:23:52;11.85;;;9.93;;
25653;SDS011;13511;48.622;9.230;2023-04-15T06:26:18;11.68;;;10.02;;
25653;SDS011;13511;48.622;9.230;2023-04-15T06:28:44;11.60;;;10.48;;
25653;SDS011;13511;48.622;9.230;2023-04-15T06:31:10;10.82;;;9.93;;
25653;SDS011;13511;48.622;9.230;2023-04-15T06:33:36;11.65;;;10.45;;
25653;SDS011;13511;48.622;9.230;2023-04-15T06:36:03;11.18;;;10.13;;
25653;SDS011;13511;48.622;9.230;2023-04-15T06:38:29;11.57;;;10.40;;
25653;SDS011;13511;48.622;9.230;2023-04-15T06:40:55;13.38;;;10.88;;
25653;SDS011;13511;48.622;9.230;2023-04-15T06:43:21;11.48;;;10.38;;
25653;SDS011;13511;48.622;9.230;2023-04-15T06:45:48;11.57;;;10.60;;
25653;SDS011;13511;48.622;9.230;2023-04-15T06:48:14;12.02;;;10.90;;
25653;SDS011;13511;48.622;9.230;2023-04-15T06:50:41;12.23;;;9.75;;
25653;SDS011;13511;48.622;9.230;2023-04-15T06:53:07;10.70;;;9.88;;
25653;SDS011;13511;48.622;9.230;2023-04-15T06:55:33;10.60;;;9.85;;
25653;SDS011;13511;48.622;9.230;2023-04-15T06:57:59;12.80;;;9.38;;
25653;SDS011;13511;48.622;9.230;2023-04-15T07:00:26;10.93;;;9.82;;
25653;SDS011;13511;48.622;9.230;2023-04-15T07:02:52;10.38;;;9.52;;
25653;SDS011;13511;48.622;9.230;2023-04-15T07:05:19;10.45;;;9.43;;
25653;SDS011;13511;48.622;9.230;2023-04-15T07:07:45;11.48;;;10.38;;
25653;SDS011;13511;48.622;9.230;2023-04-15T07:10:11;10.32;;;9.50;;
25653;SDS011;13511;48.622;9.230;2023-04-15T07:12:38;18.92;;;16.85;;
25653;SDS011;13511;48.622;9.230;2023-04-15T07:15:05;17.33;;;14.77;;
25653;SDS011;13511;48.622;9.230;2023-04-15T07:17:31;13.40;;;12.13;;
25653;SDS011;13511;48.622;9.230;2023-04-15T07:19:58;11.32;;;10.45;;
25653;SDS011;13511;48.622;9.230;2023-04-15T07:22:24;11.43;;;10.35;;
25653;SDS011;13511;48.622;9.230;2023-04-15T07:24:50;11.43;;;9.90;;
25653;SDS011;13511;48.622;9.230;2023-04-15T07:27:16;12.18;;;10.77;;
25653;SDS011;13511;48.622;9.230;2023-04-15T07:29:42;11.57;;;9.77;;
25653;SDS011;13511;48.622;9.230;2023-04-15T07:32:08;16.00;;;9.38;;
25653;SDS011;13511;48.622;9.230;2023-04-15T07:34:34;10.85;;;9.73;;
25653;SDS011;13511;48.622;9.230;2023-04-15T07:37:01;10.48;;;9.68;;
25653;SDS011;13511;48.622;9.230;2023-04-15T07:39:27;9.98;;;9.18;;
25653;SDS011;13511;48.622;9.230;2023-04-15T07:41:54;10.02;;;9.18;;
25653;SDS011;13511;48.622;9.230;2023-04-15T07:44:20;10.75;;;9.65;;
25653;SDS011;13511;48.622;9.230;2023-04-15T07:46:46;13.20;;;9.07;;
25653;SDS011;13511;48.622;9.230;2023-04-15T07:49:12;10.25;;;9.18;;
25653;SDS011;13511;48.622;9.230;2023-04-15T07:51:38;10.10;;;9.20;;
25653;SDS011;13511;48.622;9.230;2023-04-15T07:54:04;10.05;;;9.07;;
25653;SDS011;13511;48.622;9.230;2023-04-15T07:56:30;10.35;;;9.38;;
25653;SDS011;13511;48.622;9.230;2023-04-15T07:58:56;10.57;;;9.55;;
25653;SDS011;13511;48.622;9.230;2023-04-15T08:01:22;12.35;;;9.45;;
25653;SDS011;13511;48.622;9.230;2023-04-15T08:03:48;10.15;;;9.15;;
25653;SDS011;13511;48.622;9.230;2023-04-15T08:06:14;10.65;;;9.55;;
25653;SDS011;13511;48.622;9.230;2023-04-15T08:08:40;9.75;;;8.88;;
25653;SDS011;13511;48.622;9.230;2023-04-15T08:11:07;9.98;;;9.18;;
25653;SDS011;13511;48.622;9.230;2023-04-15T08:13:33;10.93;;;9.27;;
25653;SDS011;13511;48.622;9.230;2023-04-15T08:16:13;9.85;;;8.25;;
25653;SDS011;13511;48.622;9.230;2023-04-15T08:18:40;9.30;;;8.50;;
25653;SDS011;13511;48.622;9.230;2023-04-15T08:21:06;13.52;;;9.23;;
25653;SDS011;13511;48.622;9.230;2023-04-15T08:23:32;9.90;;;8.98;;
25653;SDS011;13511;48.622;9.230;2023-04-15T08:25:58;12.27;;;8.98;;
25653;SDS011;13511;48.622;9.230;2023-04-15T08:28:24;9.25;;;8.40;;
25653;SDS011;13511;48.622;9.230;2023-04-15T08:30:51;9.73;;;8.95;;
25653;SDS011;13511;48.622;9.230;2023-04-15T08:33:17;9.98;;;8.98;;
25653;SDS011;13511;48.622;9.230;2023-04-15T08:35:43;14.27;;;9.23;;
25653;SDS011;13511;48.622;9.230;2023-04-15T08:38:09;10.30;;;9.40;;
25653;SDS011;13511;48.622;9.230;2023-04-15T08:40:42;10.20;;;9.30;;
25653;SDS011;13511;48.622;9.230;2023-04-15T08:43:12;10.02;;;9.00;;
25653;SDS011;13511;48.622;9.230;2023-04-15T08:45:39;10.15;;;9.13;;
25653;SDS011;13511;48.622;9.230;2023-04-15T08:48:06;13.57;;;8.93;;
25653;SDS011;13511;48.622;9.230;2023-04-15T08:50:34;10.40;;;9.35;;
25653;SDS011;13511;48.622;9.230;2023-04-15T08:53:00;9.35;;;8.55;;
25653;SDS011;13511;48.622;9.230;2023-04-15T08:55:28;10.85;;;9.10;;
25653;SDS011;13511;48.622;9.230;2023-04-15T08:57:54;11.02;;;9.05;;
25653;SDS011;13511;48.622;9.230;2023-04-15T09:00:21;10.05;;;9.02;;
25653;SDS011;13511;48.622;9.230;2023-04-15T09:02:47;11.05;;;8.98;;
25653;SDS011;13511;48.622;9.230;2023-04-15T09:05:14;12.63;;;8.88;;
25653;SDS011;13511;48.622;9.230;2023-04-15T09:07:40;9.63;;;7.95;;
25653;SDS011;13511;48.622;9.230;2023-04-15T09:10:06;10.10;;;7.70;;
25653;SDS011;13511;48.622;9.230;2023-04-15T09:12:33;10.18;;;7.95;;
25653;SDS011;13511;48.622;9.230;2023-04-15T09:15:01;8.93;;;7.97;;
25653;SDS011;13511;48.622;9.230;2023-04-15T09:17:27;9.23;;;8.35;;
25653;SDS011;13511;48.622;9.230;2023-04-15T09:20:14;14.88;;;12.82;;
25653;SDS011;13511;48.622;9.230;2023-04-15T09:22:39;9.38;;;8.13;;
25653;SDS011;13511;48.622;9.230;2023-04-15T09:25:27;8.88;;;8.00;;
25653;SDS011;13511;48.622;9.230;2023-04-15T09:27:54;13.48;;;9.50;;
25653;SDS011;13511;48.622;9.230;2023-04-15T09:30:20;8.48;;;7.75;;
25653;SDS011;13511;48.622;9.230;2023-04-15T09:32:48;10.05;;;7.18;;
25653;SDS011;13511;48.622;9.230;2023-04-15T09:35:15;13.82;;;7.85;;
25653;SDS011;13511;48.622;9.230;2023-04-15T09:37:41;8.13;;;7.13;;
25653;SDS011;13511;48.622;9.230;2023-04-15T09:40:07;8.50;;;6.60;;
25653;SDS011;13511;48.622;9.230;2023-04-15T09:42:34;8.43;;;7.70;;
25653;SDS011;13511;48.622;9.230;2023-04-15T09:45:07;9.73;;;6.85;;
25653;SDS011;13511;48.622;9.230;2023-04-15T09:47:33;7.85;;;7.05;;
25653;SDS011;13511;48.622;9.230;2023-04-15T09:49:59;6.78;;;6.00;;
25653;SDS011;13511;48.622;9.230;2023-04-15T09:52:26;6.45;;;5.80;;
25653;SDS011;13511;48.622;9.230;2023-04-15T09:54:53;7.60;;;6.78;;
25653;SDS011;13511;48.622;9.230;2023-04-15T09:57:22;6.25;;;5.65;;
25653;SDS011;13511;48.622;9.230;2023-04-15T09:59:49;6.32;;;5.68;;
25653;SDS011;13511;48.622;9.230;2023-04-15T10:02:15;7.95;;;5.70;;
25653;SDS011;13511;48.622;9.230;2023-04-15T10:04:43;6.13;;;5.50;;
25653;SDS011;13511;48.622;9.230;2023-04-15T10:07:11;8.02;;;6.25;;
25653;SDS011;13511;48.622;9.230;2023-04-15T10:09:37;7.30;;;5.55;;
25653;SDS011;13511;48.622;9.230;2023-04-15T10:12:03;6.65;;;6.05;;
25653;SDS011;13511;48.622;9.230;2023-04-15T10:14:31;6.30;;;5.70;;
25653;SDS011;13511;48.622;9.230;2023-04-15T10:16:58;6.35;;;5.80;;
25653;SDS011;13511;48.622;9.230;2023-04-15T10:19:25;6.32;;;5.80;;
25653;SDS011;13511;48.622;9.230;2023-04-15T10:21:52;7.15;;;6.25;;
25653;SDS011;13511;48.622;9.230;2023-04-15T10:24:18;6.85;;;6.25;;
25653;SDS011;13511;48.622;9.230;2023-04-15T10:26:45;7.05;;;6.45;;
25653;SDS011;13511;48.622;9.230;2023-04-15T10:29:11;7.10;;;6.03;;
25653;SDS011;13511;48.622;9.230;2023-04-15T10:31:37;6.22;;;5.70;;
25653;SDS011;13511;48.622;9.230;2023-04-15T10:34:04;6.85;;;6.20;;
25653;SDS011;13511;48.622;9.230;2023-04-15T10:36:31;6.55;;;5.78;;
25653;SDS011;13511;48.622;9.230;2023-04-15T10:38:57;6.07;;;5.60;;
25653;SDS011;13511;48.622;9.230;2023-04-15T10:41:24;5.82;;;5.05;;
25653;SDS011;13511;48.622;9.230;2023-04-15T10:43:55;6.80;;;5.50;;
25653;SDS011;13511;48.622;9.230;2023-04-15T10:46:38;7.15;;;5.30;;
25653;SDS011;13511;48.622;9.230;2023-04-15T10:51:37;6.43;;;5.78;;
25653;SDS011;13511;48.622;9.230;2023-04-15T10:54:13;6.28;;;5.68;;
25653;SDS011;13511;48.622;9.230;2023-04-15T10:56:40;6.38;;;5.82;;
25653;SDS011;13511;48.622;9.230;2023-04-15T10:59:07;5.57;;;5.18;;
25653;SDS011;13511;48.622;9.230;2023-04-15T11:01:48;7.20;;;5.13;;
25653;SDS011;13511;48.622;9.230;2023-04-15T11:04:34;5.80;;;5.22;;
25653;SDS011;13511;48.622;9.230;2023-04-15T11:07:04;9.88;;;6.72;;
25653;SDS011;13511;48.622;9.230;2023-04-15T11:09:31;6.80;;;6.30;;
25653;SDS011;13511;48.622;9.230;2023-04-15T11:12:07;8.95;;;6.50;;
25653;SDS011;13511;48.622;9.230;2023-04-15T11:14:33;6.20;;;5.57;;
25653;SDS011;13511;48.622;9.230;2023-04-15T11:17:00;6.40;;;5.95;;
25653;SDS011;13511;48.622;9.230;2023-04-15T11:19:26;5.90;;;5.40;;
25653;SDS011;13511;48.622;9.230;2023-04-15T11:22:09;6.85;;;5.70;;
25653;SDS011;13511;48.622;9.230;2023-04-15T11:24:36;6.68;;;6.18;;
25653;SDS011;13511;48.622;9.230;2023-04-15T11:27:02;7.03;;;6.05;;
25653;SDS011;13511;48.622;9.230;2023-04-15T11:29:28;7.22;;;5.53;;
25653;SDS011;13511;48.622;9.230;2023-04-15T11:32:05;5.97;;;5.40;;
25653;SDS011;13511;48.622;9.230;2023-04-15T11:34:32;6.22;;;5.65;;
25653;SDS011;13511;48.622;9.230;2023-04-15T11:36:59;5.82;;;5.50;;
25653;SDS011;13511;48.622;9.230;2023-04-15T11:39:25;6.97;;;6.30;;
25653;SDS011;13511;48.622;9.230;2023-04-15T11:41:53;6.75;;;6.18;;
25653;SDS011;13511;48.622;9.230;2023-04-15T11:44:20;7.75;;;5.80;;
25653;SDS011;13511;48.622;9.230;2023-04-15T11:46:46;6.75;;;5.53;;
25653;SDS011;13511;48.622;9.230;2023-04-15T11:49:24;10.52;;;6.40;;
25653;SDS011;13511;48.622;9.230;2023-04-15T11:51:50;6.80;;;6.10;;
25653;SDS011;13511;48.622;9.230;2023-04-15T11:54:19;7.30;;;6.60;;
25653;SDS011;13511;48.622;9.230;2023-04-15T11:56:49;7.45;;;6.70;;
25653;SDS011;13511;48.622;9.230;2023-04-15T11:59:15;7.03;;;6.43;;
25653;SDS011;13511;48.622;9.230;2023-04-15T12:01:41;7.25;;;6.55;;
25653;SDS011;13511;48.622;9.230;2023-04-15T12:04:11;7.43;;;6.60;;
25653;SDS011;13511;48.622;9.230;2023-04-15T12:06:38;6.68;;;6.13;;
25653;SDS011;13511;48.622;9.230;2023-04-15T12:11:35;6.88;;;6.47;;
25653;SDS011;13511;48.622;9.230;2023-04-15T12:14:02;6.13;;;5.55;;
25653;SDS011;13511;48.622;9.230;2023-04-15T12:16:29;6.75;;;5.95;;
25653;SDS011;13511;48.622;9.230;2023-04-15T12:18:56;6.32;;;5.82;;
25653;SDS011;13511;48.622;9.230;2023-04-15T12:21:23;6.93;;;6.40;;
25653;SDS011;13511;48.622;9.230;2023-04-15T12:23:54;7.45;;;5.80;;
25653;SDS011;13511;48.622;9.230;2023-04-15T12:26:27;6.30;;;5.70;;
25653;SDS011;13511;48.622;9.230;2023-04-15T12:29:03;5.80;;;5.50;;
25653;SDS011;13511;48.622;9.230;2023-04-15T12:31:29;6.20;;;5.70;;
25653;SDS011;13511;48.622;9.230;2023-04-15T12:33:58;8.57;;;6.22;;
25653;SDS011;13511;48.622;9.230;2023-04-15T12:36:25;5.82;;;5.38;;
25653;SDS011;13511;48.622;9.230;2023-04-15T12:38:51;6.32;;;5.68;;
25653;SDS011;13511;48.622;9.230;2023-04-15T12:41:17;8.35;;;6.85;;
25653;SDS011;13511;48.622;9.230;2023-04-15T12:43:44;8.13;;;6.40;;
25653;SDS011;13511;48.622;9.230;2023-04-15T12:46:11;7.05;;;6.45;;
25653;SDS011;13511;48.622;9.230;2023-04-15T12:48:37;6.60;;;6.00;;
25653;SDS011;13511;48.622;9.230;2023-04-15T12:51:03;6.75;;;6.25;;
25653;SDS011;13511;48.622;9.230;2023-04-15T12:53:29;7.65;;;6.95;;
25653;SDS011;13511;48.622;9.230;2023-04-15T12:55:55;8.93;;;7.30;;
25653;SDS011;13511;48.622;9.230;2023-04-15T12:58:21;7.53;;;6.55;;
25653;SDS011;13511;48.622;9.230;2023-04-15T13:00:47;8.93;;;7.13;;
25653;SDS011;13511;48.622;9.230;2023-04-15T13:03:14;11.65;;;8.38;;
25653;SDS011;13511;48.622;9.230;2023-04-15T13:05:40;14.73;;;9.13;;
25653;SDS011;13511;48.622;9.230;2023-04-15T13:08:06;11.27;;;8.05;;
25653;SDS011;13511;48.622;9.230;2023-04-15T13:10:34;7.95;;;7.20;;
25653;SDS011;13511;48.622;9.230;2023-04-15T13:13:03;7.68;;;6.82;;
25653;SDS011;13511;48.622;9.230;2023-04-15T13:15:29;7.07;;;6.57;;
25653;SDS011;13511;48.622;9.230;2023-04-15T13:17:56;7.20;;;6.57;;
25653;SDS011;13511;48.622;9.230;2023-04-15T13:20:22;8.10;;;7.50;;
25653;SDS011;13511;48.622;9.230;2023-04-15T13:22:48;6.80;;;6.38;;
25653;SDS011;13511;48.622;9.230;2023-04-15T13:25:14;6.70;;;6.30;;
25653;SDS011;13511;48.622;9.230;2023-04-15T13:27:40;6.72;;;6.22;;
25653;SDS011;13511;48.622;9.230;2023-04-15T13:30:06;7.43;;;6.72;;
25653;SDS011;13511;48.622;9.230;2023-04-15T13:32:33;6.93;;;6.22;;
25653;SDS011;13511;48.622;9.230;2023-04-15T13:34:59;6.53;;;6.10;;
25653;SDS011;13511;48.622;9.230;2023-04-15T13:37:26;6.35;;;5.95;;
25653;SDS011;13511;48.622;9.230;2023-04-15T13:39:52;5.68;;;5.28;;
25653;SDS011;13511;48.622;9.230;2023-04-15T13:42:18;6.32;;;5.72;;
25653;SDS011;13511;48.622;9.230;2023-04-15T13:44:44;6.72;;;5.82;;
25653;SDS011;13511;48.622;9.230;2023-04-15T13:47:10;7.32;;;6.40;;
25653;SDS011;13511;48.622;9.230;2023-04-15T13:49:38;6.47;;;5.80;;
25653;SDS011;13511;48.622;9.230;2023-04-15T13:52:05;6.32;;;5.82;;
25653;SDS011;13511;48.622;9.230;2023-04-15T13:54:31;6.60;;;6.20;;
25653;SDS011;13511;48.622;9.230;2023-04-15T13:56:57;7.05;;;6.38;;
25653;SDS011;13511;48.622;9.230;2023-04-15T13:59:23;5.50;;;5.20;;
25653;SDS011;13511;48.622;9.230;2023-04-15T14:01:49;6.00;;;5.60;;
25653;SDS011;13511;48.622;9.230;2023-04-15T14:04:15;10.40;;;5.78;;
25653;SDS011;13511;48.622;9.230;2023-04-15T14:06:41;5.80;;;5.40;;
25653;SDS011;13511;48.622;9.230;2023-04-15T14:09:07;6.03;;;5.28;;
25653;SDS011;13511;48.622;9.230;2023-04-15T14:11:33;5.90;;;5.50;;
25653;SDS011;13511;48.622;9.230;2023-04-15T14:14:00;5.10;;;4.70;;
25653;SDS011;13511;48.622;9.230;2023-04-15T14:16:26;6.20;;;5.40;;
25653;SDS011;13511;48.622;9.230;2023-04-15T14:18:52;5.75;;;5.35;;
25653;SDS011;13511;48.622;9.230;2023-04-15T14:21:18;5.05;;;4.70;;
25653;SDS011;13511;48.622;9.230;2023-04-15T14:23:45;5.85;;;5.45;;
25653;SDS011;13511;48.622;9.230;2023-04-15T14:26:11;6.18;;;5.60;;
25653;SDS011;13511;48.622;9.230;2023-04-15T14:28:37;5.05;;;4.65;;
25653;SDS011;13511;48.622;9.230;2023-04-15T14:31:03;5.53;;;5.20;;
25653;SDS011;13511;48.622;9.230;2023-04-15T14:33:30;5.50;;;5.18;;
25653;SDS011;13511;48.622;9.230;2023-04-15T14:35:56;6.38;;;4.90;;
25653;SDS011;13511;48.622;9.230;2023-04-15T14:38:22;6.38;;;5.78;;